createdAt,value
2022-12-03T00:03:02.722Z,16.90
2022-12-03T00:08:04.495Z,17.35
2022-12-03T00:13:05.996Z,17.60
2022-12-03T00:18:07.520Z,17.65
2022-12-03T00:23:09.030Z,15.07
2022-12-03T00:28:10.565Z,18.35
2022-12-03T00:33:12.011Z,16.38
2022-12-03T00:38:13.872Z,16.33
2022-12-03T00:43:15.335Z,16.58
2022-12-03T00:48:16.786Z,18.38
2022-12-03T00:53:18.270Z,18.80
2022-12-03T00:58:19.821Z,19.52
2022-12-03T01:03:21.326Z,20.40
2022-12-03T01:08:22.827Z,20.85
2022-12-03T01:13:24.351Z,21.77
2022-12-03T01:18:25.869Z,21.05
2022-12-03T01:23:27.312Z,21.95
2022-12-03T01:28:29.408Z,22.95
2022-12-03T01:33:30.921Z,21.95
2022-12-03T01:38:32.393Z,22.25
2022-12-03T01:43:33.924Z,21.83
2022-12-03T01:48:37.814Z,22.08
2022-12-03T01:53:39.327Z,21.85
2022-12-03T01:58:41.390Z,21.10
2022-12-03T02:03:44.069Z,20.67
2022-12-03T02:08:47.054Z,20.67
2022-12-03T02:13:52.732Z,18.50
2022-12-03T02:18:54.242Z,18.90
2022-12-03T02:24:11.725Z,18.20
2022-12-03T02:29:13.452Z,19.60
2022-12-03T02:34:53.996Z,18.17
2022-12-03T02:39:59.060Z,17.02
2022-12-03T02:45:05.678Z,18.70
2022-12-03T02:50:09.715Z,16.23
2022-12-03T02:55:13.391Z,17.08
2022-12-03T03:00:16.188Z,17.90
2022-12-03T03:05:21.467Z,16.98
2022-12-03T03:10:23.750Z,17.48
2022-12-03T03:15:25.521Z,17.45
2022-12-03T03:20:27.063Z,17.15
2022-12-03T03:25:28.588Z,16.92
2022-12-03T03:30:30.391Z,17.13
2022-12-03T03:35:31.984Z,17.08
2022-12-03T03:40:33.628Z,18.90
2022-12-03T03:45:35.269Z,17.20
2022-12-03T03:50:37.124Z,17.75
2022-12-03T03:55:39.912Z,16.75
2022-12-03T04:00:44.010Z,17.67
2022-12-03T04:05:46.664Z,18.60
2022-12-03T04:11:07.166Z,18.35
2022-12-03T04:16:08.745Z,19.42
2022-12-03T04:21:34.556Z,18.38
2022-12-03T04:26:54.880Z,17.08
2022-12-03T04:32:15.239Z,17.35
2022-12-03T04:37:16.896Z,19.17
2022-12-03T04:42:18.377Z,17.50
2022-12-03T04:47:21.544Z,19.20
2022-12-03T04:52:23.084Z,19.13
2022-12-03T04:57:24.539Z,18.67
2022-12-03T05:02:26.045Z,19.45
2022-12-03T05:07:27.637Z,18.77
2022-12-03T05:12:29.177Z,18.20
2022-12-03T05:17:30.810Z,19.20
2022-12-03T05:22:32.308Z,18.15
2022-12-03T05:27:34.702Z,18.10
2022-12-03T05:32:36.215Z,17.17
2022-12-03T05:37:37.782Z,17.38
2022-12-03T05:42:54.555Z,17.83
2022-12-03T05:47:57.637Z,17.33
2022-12-03T05:52:59.473Z,18.42
2022-12-03T05:58:01.077Z,17.83
2022-12-03T06:03:02.849Z,18.83
2022-12-03T06:08:04.561Z,19.17
2022-12-03T06:13:06.150Z,17.85
2022-12-03T06:18:07.607Z,19.10
2022-12-03T06:23:09.146Z,17.92
2022-12-03T06:28:10.626Z,18.85
2022-12-03T06:33:12.153Z,19.60
2022-12-03T06:38:13.619Z,18.50
2022-12-03T06:43:15.170Z,19.38
2022-12-03T06:48:16.725Z,17.77
2022-12-03T06:53:18.226Z,19.23
2022-12-03T06:58:19.804Z,16.92
2022-12-03T07:03:21.403Z,19.25
2022-12-03T07:08:22.869Z,17.70
2022-12-03T07:13:24.371Z,19.10
2022-12-03T07:18:25.886Z,19.27
2022-12-03T07:23:27.390Z,20.17
2022-12-03T07:28:28.911Z,19.63
2022-12-03T07:33:30.606Z,19.77
2022-12-03T07:38:32.122Z,20.48
2022-12-03T07:43:33.632Z,21.02
2022-12-03T07:48:35.127Z,21.05
2022-12-03T07:53:36.641Z,21.52
2022-12-03T07:58:38.208Z,20.15
2022-12-03T08:03:39.702Z,20.27
2022-12-03T08:08:41.272Z,21.50
2022-12-03T08:13:42.961Z,16.17
2022-12-03T08:18:45.425Z,19.63
2022-12-03T08:23:47.107Z,19.83
2022-12-03T08:28:48.917Z,19.77
2022-12-03T08:33:53.178Z,18.83
2022-12-03T08:39:02.089Z,19.20
2022-12-03T08:44:21.167Z,19.13
2022-12-03T08:49:22.806Z,18.88
2022-12-03T08:54:25.937Z,17.63
2022-12-03T08:59:32.153Z,18.70
2022-12-03T09:04:42.852Z,18.40
2022-12-03T09:09:44.364Z,17.92
2022-12-03T09:14:45.817Z,17.67
2022-12-03T09:19:47.297Z,17.30
2022-12-03T09:24:48.798Z,18.33
2022-12-03T09:29:50.791Z,17.60
2022-12-03T09:34:52.759Z,17.55
2022-12-03T09:39:54.416Z,18.58
2022-12-03T09:44:56.223Z,18.55
2022-12-03T09:49:58.508Z,18.13
2022-12-03T09:55:05.548Z,21.75
2022-12-03T10:00:15.737Z,19.97
2022-12-03T10:05:20.079Z,20.17
2022-12-03T10:10:25.122Z,21.05
2022-12-03T10:15:26.849Z,24.40
2022-12-03T10:20:28.386Z,20.58
2022-12-03T10:25:29.862Z,21.73
2022-12-03T10:30:31.573Z,23.77
2022-12-03T10:35:39.230Z,22.67
2022-12-03T10:40:40.769Z,26.35
2022-12-03T10:45:43.164Z,27.95
2022-12-03T10:50:53.251Z,27.02
2022-12-03T10:55:59.561Z,29.05
2022-12-03T11:01:03.592Z,27.52
2022-12-03T11:06:05.253Z,25.90
2022-12-03T11:11:13.335Z,24.42
2022-12-03T11:16:40.761Z,27.25
2022-12-03T11:22:07.228Z,26.05
2022-12-03T11:27:19.121Z,25.70
2022-12-03T11:32:38.944Z,27.48
2022-12-03T11:37:40.724Z,26.25
2022-12-03T11:42:42.822Z,26.70
2022-12-03T11:48:02.883Z,27.50
2022-12-03T11:53:18.912Z,28.05
2022-12-03T11:58:29.599Z,27.63
2022-12-03T12:03:51.464Z,26.95
2022-12-03T12:08:53.045Z,27.30
2022-12-03T12:14:01.345Z,28.00
2022-12-03T12:19:29.134Z,21.48
2022-12-03T12:24:43.191Z,25.05
2022-12-03T12:29:50.519Z,27.65
2022-12-03T12:35:00.375Z,28.52
2022-12-03T12:40:11.607Z,26.95
2022-12-03T12:45:27.576Z,28.05
2022-12-03T12:50:31.728Z,27.48
2022-12-03T12:55:33.251Z,28.13
2022-12-03T13:00:34.783Z,27.00
2022-12-03T13:05:42.338Z,27.50
2022-12-03T13:10:43.866Z,27.05
2022-12-03T13:15:49.354Z,27.33
2022-12-03T13:20:50.953Z,26.27
2022-12-03T13:26:07.417Z,26.30
2022-12-03T13:31:34.015Z,26.60
2022-12-03T13:36:41.307Z,28.55
2022-12-03T13:42:01.694Z,27.15
2022-12-03T13:47:13.937Z,28.00
2022-12-03T13:52:19.574Z,28.77
2022-12-03T13:57:23.786Z,27.75
2022-12-03T14:02:25.372Z,26.70
2022-12-03T14:07:26.928Z,25.80
2022-12-03T14:12:33.529Z,29.20
2022-12-03T14:17:35.091Z,29.17
2022-12-03T14:22:39.461Z,28.90
2022-12-03T14:27:41.000Z,27.90
2022-12-03T14:32:42.533Z,28.75
2022-12-03T14:37:44.112Z,26.70
2022-12-03T14:42:45.679Z,27.02
2022-12-03T14:47:47.208Z,22.85
2022-12-03T14:52:48.701Z,28.58
2022-12-03T14:57:50.276Z,28.92
2022-12-03T15:02:54.240Z,28.88
2022-12-03T15:07:57.928Z,26.48
2022-12-03T15:12:59.528Z,26.73
2022-12-03T15:18:01.053Z,26.38
2022-12-03T15:23:02.517Z,25.90
2022-12-03T15:28:05.425Z,25.90
2022-12-03T15:33:06.961Z,36.60
2022-12-03T15:38:09.413Z,30.95
2022-12-03T15:43:11.792Z,31.48
2022-12-03T15:48:13.822Z,35.63
2022-12-03T15:53:15.387Z,30.75
2022-12-03T15:58:16.839Z,32.25
2022-12-03T16:03:18.656Z,38.30
2022-12-03T16:08:20.216Z,34.67
2022-12-03T16:13:21.739Z,30.48
2022-12-03T16:18:23.219Z,35.75
2022-12-03T16:23:24.727Z,31.85
2022-12-03T16:28:41.306Z,27.70
2022-12-03T16:33:42.819Z,32.13
2022-12-03T16:38:44.358Z,32.55
2022-12-03T16:43:48.376Z,30.35
2022-12-03T16:48:50.169Z,31.15
2022-12-03T16:53:51.826Z,28.50
2022-12-03T16:58:53.317Z,32.47
2022-12-03T17:03:54.860Z,26.00
2022-12-03T17:08:56.377Z,26.02
2022-12-03T17:13:57.916Z,33.45
2022-12-03T17:18:59.401Z,30.35
2022-12-03T17:24:00.939Z,29.40
2022-12-03T17:29:02.414Z,32.47
2022-12-03T17:34:03.892Z,27.67
2022-12-03T17:39:05.366Z,30.58
2022-12-03T17:44:10.673Z,28.15
2022-12-03T17:49:13.638Z,23.23
2022-12-03T17:54:15.170Z,27.98
2022-12-03T17:59:16.713Z,29.50
2022-12-03T18:04:18.251Z,30.95
2022-12-03T18:09:19.848Z,32.20
2022-12-03T18:14:21.385Z,30.02
2022-12-03T18:19:23.012Z,24.85
2022-12-03T18:24:25.240Z,29.13
2022-12-03T18:29:26.754Z,28.20
2022-12-03T18:34:28.271Z,30.65
2022-12-03T18:39:36.130Z,28.70
2022-12-03T18:49:39.215Z,27.90
2022-12-03T18:54:40.787Z,30.45
2022-12-03T18:59:42.391Z,27.40
2022-12-03T19:04:44.185Z,28.55
2022-12-03T19:09:45.698Z,27.80
2022-12-03T19:14:48.226Z,29.25
2022-12-03T19:19:49.728Z,27.10
2022-12-03T19:24:51.270Z,28.77
2022-12-03T19:29:52.925Z,29.85
2022-12-03T19:34:54.715Z,26.23
2022-12-03T19:39:56.560Z,25.75
2022-12-03T19:44:58.355Z,21.48
2022-12-03T19:49:59.867Z,28.10
2022-12-03T19:55:02.068Z,26.75
2022-12-03T20:00:05.372Z,24.48
2022-12-03T20:05:07.509Z,25.55
2022-12-03T20:10:09.345Z,26.00
2022-12-03T20:15:12.404Z,26.52
2022-12-03T20:20:13.987Z,28.48
2022-12-03T20:25:15.499Z,23.15
2022-12-03T20:30:17.068Z,22.33
2022-12-03T20:35:18.697Z,22.70
2022-12-03T20:40:20.170Z,23.25
2022-12-03T20:45:21.641Z,19.50
2022-12-03T20:50:23.182Z,24.25
2022-12-03T20:55:24.691Z,18.77
2022-12-03T21:00:26.289Z,22.50
2022-12-03T21:05:27.868Z,18.77
2022-12-03T21:10:44.784Z,21.67
2022-12-03T21:15:46.424Z,19.73
2022-12-03T21:20:47.954Z,21.70
2022-12-03T21:25:49.536Z,22.92
2022-12-03T21:30:54.608Z,21.58
2022-12-03T21:35:56.707Z,23.48
2022-12-03T21:40:59.112Z,23.85
2022-12-03T21:46:05.234Z,22.05
2022-12-03T21:51:26.620Z,25.70
2022-12-03T21:56:30.819Z,25.98
2022-12-03T22:01:32.470Z,22.88
2022-12-03T22:06:34.045Z,24.58
2022-12-03T22:11:35.596Z,25.60
2022-12-03T22:16:37.630Z,24.23
2022-12-03T22:21:39.228Z,27.67
2022-12-03T22:26:40.843Z,23.48
2022-12-03T22:31:42.364Z,25.67
2022-12-03T22:36:43.900Z,26.27
2022-12-03T22:41:45.375Z,28.63
2022-12-03T22:46:46.979Z,25.52
2022-12-03T22:51:48.690Z,27.05
2022-12-03T22:56:50.192Z,25.27
2022-12-03T23:01:51.721Z,26.80
2022-12-03T23:06:53.235Z,27.60
2022-12-03T23:11:54.841Z,26.98
2022-12-03T23:16:56.360Z,29.40
2022-12-03T23:21:58.099Z,27.23
2022-12-03T23:26:59.559Z,28.17
2022-12-03T23:32:01.095Z,24.88
2022-12-03T23:37:02.653Z,28.27
2022-12-03T23:42:04.169Z,28.75
2022-12-03T23:47:06.160Z,26.50
2022-12-03T23:52:07.767Z,27.17
2022-12-03T23:57:09.309Z,28.88
